Time,TemperatureF,DewpointF,PressureIn,WindDirection,WindDirectionDegrees,WindSpeedMPH,WindSpeedGustMPH,Humidity,HourlyPrecipIn,Conditions,Clouds,dailyrainin,SoftwareType,DateUTC
2013-10-05 00:01:00,36.9,34.0,30.33,East,93,2.0,-999.0,90,-99.99,,,0.00,weatherlink.com 1.10,2013-10-05 07:01:00,
2013-10-05 00:16:00,36.6,35.0,30.33,East,93,2.0,-999.0,93,-99.99,,,0.00,weatherlink.com 1.10,2013-10-05 07:16:00,
2013-10-05 00:31:00,36.8,35.0,30.34,East,93,0.0,-999.0,94,-99.99,,,0.00,weatherlink.com 1.10,2013-10-05 07:31:00,
2013-10-05 00:46:00,37.0,36.0,30.34,East,93,0.0,-999.0,94,-99.99,,,0.00,weatherlink.com 1.10,2013-10-05 07:46:00,
2013-10-05 01:01:00,37.6,36.0,30.33,East,93,0.0,-999.0,93,-99.99,,,0.00,weatherlink.com 1.10,2013-10-05 08:01:00,
2013-10-05 01:16:00,38.2,36.0,30.33,East,93,0.0,-999.0,92,-99.99,,,0.00,weatherlink.com 1.10,2013-10-05 08:16:00,
2013-10-05 01:31:00,38.6,36.0,30.32,East,93,0.0,-999.0,89,-99.99,,,0.00,weatherlink.com 1.10,2013-10-05 08:31:00,
2013-10-05 01:46:00,38.9,36.0,30.32,East,93,0.0,-999.0,90,-99.99,,,0.00,weatherlink.com 1.10,2013-10-05 08:46:00,
2013-10-05 02:02:00,38.5,36.0,30.32,East,93,0.0,-999.0,90,-99.99,,,0.00,weatherlink.com 1.10,2013-10-05 09:02:00,
2013-10-05 02:17:00,38.5,36.0,30.31,East,95,0.0,-999.0,92,-99.99,,,0.00,weatherlink.com 1.10,2013-10-05 09:17:00,
2013-10-05 02:32:00,38.5,37.0,30.30,East,93,0.0,-999.0,94,-99.99,,,0.00,weatherlink.com 1.10,2013-10-05 09:32:00,
2013-10-05 02:47:00,38.2,37.0,30.30,East,93,0.0,-999.0,95,-99.99,,,0.00,weatherlink.com 1.10,2013-10-05 09:47:00,
2013-10-05 03:02:00,38.0,37.0,30.30,East,93,0.0,-999.0,94,-99.99,,,0.00,weatherlink.com 1.10,2013-10-05 10:02:00,
2013-10-05 03:17:00,38.0,37.0,30.30,East,93,0.0,-999.0,96,-99.99,,,0.00,weatherlink.com 1.10,2013-10-05 10:17:00,
2013-10-05 03:32:00,38.2,38.0,30.30,East,93,0.0,-999.0,97,-99.99,,,0.00,weatherlink.com 1.10,2013-10-05 10:32:00,
2013-10-05 03:47:00,38.6,36.0,30.31,East,93,0.0,-999.0,89,-99.99,,,0.00,weatherlink.com 1.10,2013-10-05 10:47:00,
2013-10-05 04:02:00,38.3,37.0,30.30,East,93,0.0,-999.0,96,-99.99,,,0.00,weatherlink.com 1.10,2013-10-05 11:02:00,
2013-10-05 04:17:00,38.2,37.0,30.30,East,93,0.0,-999.0,96,-99.99,,,0.00,weatherlink.com 1.10,2013-10-05 11:17:00,
2013-10-05 04:32:00,38.3,37.0,30.30,East,93,0.0,-999.0,95,-99.99,,,0.00,weatherlink.com 1.10,2013-10-05 11:32:00,
2013-10-05 04:47:00,38.2,38.0,30.31,East,93,1.0,-999.0,99,-99.99,,,0.00,weatherlink.com 1.10,2013-10-05 11:47:00,
2013-10-05 05:02:00,38.5,39.0,30.31,East,95,0.0,-999.0,100,-99.99,,,0.00,weatherlink.com 1.10,2013-10-05 12:02:00,
2013-10-05 05:17:00,38.8,39.0,30.31,East,95,0.0,-999.0,100,-99.99,,,0.00,weatherlink.com 1.10,2013-10-05 12:17:00,
2013-10-05 05:32:00,39.1,39.0,30.30,East,93,0.0,-999.0,100,-99.99,,,0.00,weatherlink.com 1.10,2013-10-05 12:32:00,
2013-10-05 05:47:00,39.5,37.0,30.30,East,93,0.0,-999.0,92,-99.99,,,0.00,weatherlink.com 1.10,2013-10-05 12:47:00,
2013-10-05 06:02:00,39.6,38.0,30.30,East,93,0.0,-999.0,92,-99.99,,,0.00,weatherlink.com 1.10,2013-10-05 13:02:00,
2013-10-05 06:17:00,39.2,38.0,30.34,East,93,0.0,-999.0,96,-99.99,,,0.00,weatherlink.com 1.10,2013-10-05 13:17:00,
2013-10-05 06:32:00,39.1,39.0,30.34,East,93,0.0,-999.0,100,-99.99,,,0.00,weatherlink.com 1.10,2013-10-05 13:32:00,
2013-10-05 06:47:00,38.8,39.0,30.34,East,93,0.0,-999.0,100,-99.99,,,0.00,weatherlink.com 1.10,2013-10-05 13:47:00,
2013-10-05 07:02:00,38.8,39.0,30.34,East,95,0.0,-999.0,100,-99.99,,,0.00,weatherlink.com 1.10,2013-10-05 14:02:00,
2013-10-05 07:17:00,39.1,39.0,30.35,East,93,0.0,-999.0,100,-99.99,,,0.00,weatherlink.com 1.10,2013-10-05 14:17:00,
2013-10-05 07:47:00,39.5,40.0,30.34,East,93,0.0,-999.0,100,-99.99,,,0.00,weatherlink.com 1.10,2013-10-05 14:47:00,
2013-10-05 08:02:00,39.9,40.0,30.34,East,93,0.0,-999.0,100,-99.99,,,0.00,weatherlink.com 1.10,2013-10-05 15:02:00,
2013-10-05 08:26:00,41.3,37.0,30.35,East,93,0.0,-999.0,83,-99.99,,,0.00,weatherlink.com 1.10,2013-10-05 15:26:00,
2013-10-05 09:06:00,42.8,37.0,30.36,West,271,0.0,-999.0,80,-99.99,,,0.00,weatherlink.com 1.10,2013-10-05 16:06:00,
2013-10-05 09:26:00,43.8,38.0,30.35,West,263,0.0,-999.0,79,-99.99,,,0.00,weatherlink.com 1.10,2013-10-05 16:26:00,
2013-10-05 09:46:00,43.8,37.0,30.35,West,263,0.0,-999.0,77,-99.99,,,0.00,weatherlink.com 1.10,2013-10-05 16:46:00,
2013-10-05 10:06:00,44.6,37.0,30.34,West,263,1.0,-999.0,76,-99.99,,,0.00,weatherlink.com 1.10,2013-10-05 17:06:00,
2013-10-05 10:16:00,44.6,36.0,30.34,West,263,2.0,-999.0,72,-99.99,,,0.00,weatherlink.com 1.10,2013-10-05 17:16:00,
2013-10-05 10:43:00,46.2,32.0,30.35,WSW,258,4.0,-999.0,58,-99.99,,,0.00,weatherlink.com 1.10,2013-10-05 17:43:00,
2013-10-05 11:03:00,47.4,33.0,30.33,West,274,1.0,-999.0,57,-99.99,,,0.00,weatherlink.com 1.10,2013-10-05 18:03:00,
2013-10-05 11:23:00,48.8,33.0,30.33,NNW,340,0.0,-999.0,55,-99.99,,,0.00,weatherlink.com 1.10,2013-10-05 18:23:00,
2013-10-05 11:31:00,49.1,32.0,30.32,West,274,2.0,-999.0,53,-99.99,,,0.00,weatherlink.com 1.10,2013-10-05 18:31:00,
2013-10-05 11:46:00,49.6,32.0,30.32,West,263,0.0,-999.0,51,-99.99,,,0.00,weatherlink.com 1.10,2013-10-05 18:46:00,
2013-10-05 12:01:00,50.2,33.0,30.32,West,274,2.0,-999.0,52,-99.99,,,0.00,weatherlink.com 1.10,2013-10-05 19:01:00,
2013-10-05 12:16:00,50.5,32.0,30.31,West,267,3.0,-999.0,49,-99.99,,,0.00,weatherlink.com 1.10,2013-10-05 19:16:00,
2013-10-05 12:31:00,50.5,33.0,30.31,West,280,1.0,-999.0,51,-99.99,,,0.00,weatherlink.com 1.10,2013-10-05 19:31:00,
2013-10-05 12:46:00,50.5,32.0,30.31,West,261,4.0,-999.0,50,-99.99,,,0.00,weatherlink.com 1.10,2013-10-05 19:46:00,
2013-10-05 13:01:00,50.7,33.0,30.30,West,264,0.0,-999.0,51,-99.99,,,0.00,weatherlink.com 1.10,2013-10-05 20:01:00,
2013-10-05 13:16:00,50.8,32.0,30.30,West,272,0.0,-999.0,49,-99.99,,,0.00,weatherlink.com 1.10,2013-10-05 20:16:00,
2013-10-05 13:31:00,51.7,31.0,30.29,West,268,0.0,-999.0,45,-99.99,,,0.00,weatherlink.com 1.10,2013-10-05 20:31:00,
2013-10-05 13:47:00,52.3,31.0,30.29,WSW,237,0.0,-999.0,44,-99.99,,,0.00,weatherlink.com 1.10,2013-10-05 20:47:00,
2013-10-05 14:02:00,53.6,34.0,30.27,West,272,0.0,-999.0,47,-99.99,,,0.00,weatherlink.com 1.10,2013-10-05 21:02:00,
2013-10-05 14:17:00,55.0,32.0,30.27,West,264,5.0,-999.0,42,-99.99,,,0.00,weatherlink.com 1.10,2013-10-05 21:17:00,
2013-10-05 14:32:00,55.1,33.0,30.27,WNW,291,3.0,-999.0,44,-99.99,,,0.00,weatherlink.com 1.10,2013-10-05 21:32:00,
2013-10-05 14:47:00,55.3,32.0,30.26,NW,323,2.0,-999.0,42,-99.99,,,0.00,weatherlink.com 1.10,2013-10-05 21:47:00,
2013-10-05 15:02:00,54.5,31.0,30.26,West,268,0.0,-999.0,41,-99.99,,,0.00,weatherlink.com 1.10,2013-10-05 22:02:00,
2013-10-05 15:29:00,54.1,34.0,30.24,SSE,162,0.0,-999.0,46,-99.99,,,0.00,weatherlink.com 1.10,2013-10-05 22:29:00,
2013-10-05 15:47:00,54.5,32.0,30.24,WSW,243,3.0,-999.0,43,-99.99,,,0.00,weatherlink.com 1.10,2013-10-05 22:47:00,
2013-10-05 16:02:00,54.8,32.0,30.23,West,272,0.0,-999.0,43,-99.99,,,0.00,weatherlink.com 1.10,2013-10-05 23:02:00,
2013-10-05 16:17:00,55.3,34.0,30.23,West,267,0.0,-999.0,44,-99.99,,,0.00,weatherlink.com 1.10,2013-10-05 23:17:00,
2013-10-05 16:32:00,54.2,33.0,30.24,West,267,0.0,-999.0,44,-99.99,,,0.00,weatherlink.com 1.10,2013-10-05 23:32:00,
2013-10-05 16:47:00,54.4,33.0,30.24,West,267,0.0,-999.0,45,-99.99,,,0.00,weatherlink.com 1.10,2013-10-05 23:47:00,
2013-10-05 17:02:00,54.1,36.0,30.23,West,267,0.0,-999.0,50,-99.99,,,0.00,weatherlink.com 1.10,2013-10-06 00:02:00,
2013-10-05 17:17:00,53.8,36.0,30.22,West,267,0.0,-999.0,51,-99.99,,,0.00,weatherlink.com 1.10,2013-10-06 00:17:00,
2013-10-05 17:32:00,53.2,38.0,30.22,West,267,0.0,-999.0,56,-99.99,,,0.00,weatherlink.com 1.10,2013-10-06 00:32:00,
2013-10-05 17:47:00,51.4,38.0,30.23,West,267,0.0,-999.0,60,-99.99,,,0.00,weatherlink.com 1.10,2013-10-06 00:47:00,
2013-10-05 18:02:00,49.9,39.0,30.24,West,267,0.0,-999.0,67,-99.99,,,0.00,weatherlink.com 1.10,2013-10-06 01:02:00,
2013-10-05 18:17:00,48.9,41.0,30.24,West,267,0.0,-999.0,73,-99.99,,,0.00,weatherlink.com 1.10,2013-10-06 01:17:00,
2013-10-05 18:32:00,47.3,43.0,30.25,West,267,0.0,-999.0,84,-99.99,,,0.00,weatherlink.com 1.10,2013-10-06 01:32:00,
2013-10-05 18:47:00,45.7,43.0,30.26,West,267,0.0,-999.0,89,-99.99,,,0.00,weatherlink.com 1.10,2013-10-06 01:47:00,
2013-10-05 19:08:00,44.1,42.0,30.25,West,267,0.0,-999.0,93,-99.99,,,0.00,weatherlink.com 1.10,2013-10-06 02:08:00,
2013-10-05 19:28:00,43.2,43.0,30.25,West,267,0.0,-999.0,98,-99.99,,,0.00,weatherlink.com 1.10,2013-10-06 02:28:00,
2013-10-05 19:50:00,42.6,42.0,30.26,West,267,0.0,-999.0,98,-99.99,,,0.00,weatherlink.com 1.10,2013-10-06 02:50:00,
2013-10-05 20:08:00,42.3,42.0,30.26,West,267,0.0,-999.0,99,-99.99,,,0.00,weatherlink.com 1.10,2013-10-06 03:08:00,
2013-10-05 21:09:00,41.9,42.0,30.24,West,267,0.0,-999.0,100,-99.99,,,0.00,weatherlink.com 1.10,2013-10-06 04:09:00,
2013-10-05 21:24:00,41.8,42.0,30.23,West,267,2.0,-999.0,100,-99.99,,,0.00,weatherlink.com 1.10,2013-10-06 04:24:00,
2013-10-05 21:39:00,41.5,42.0,30.23,West,267,2.0,-999.0,100,-99.99,,,0.00,weatherlink.com 1.10,2013-10-06 04:39:00,
2013-10-05 21:54:00,41.2,41.0,30.24,West,267,0.0,-999.0,99,-99.99,,,0.00,weatherlink.com 1.10,2013-10-06 04:54:00,
2013-10-05 22:09:00,40.9,41.0,30.24,West,267,2.0,-999.0,100,-99.99,,,0.00,weatherlink.com 1.10,2013-10-06 05:09:00,
2013-10-05 22:24:00,41.1,41.0,30.22,West,267,0.0,-999.0,100,-99.99,,,0.00,weatherlink.com 1.10,2013-10-06 05:24:00,
2013-10-05 22:39:00,41.3,41.0,30.22,West,267,0.0,-999.0,100,-99.99,,,0.00,weatherlink.com 1.10,2013-10-06 05:39:00,
2013-10-05 22:54:00,40.9,41.0,30.22,West,267,0.0,-999.0,100,-99.99,,,0.00,weatherlink.com 1.10,2013-10-06 05:54:00,
2013-10-05 23:09:00,40.5,41.0,30.21,West,267,0.0,-999.0,100,-99.99,,,0.00,weatherlink.com 1.10,2013-10-06 06:09:00,
2013-10-05 23:24:00,40.3,40.0,30.21,West,267,0.0,-999.0,100,-99.99,,,0.00,weatherlink.com 1.10,2013-10-06 06:24:00,
2013-10-05 23:39:00,40.6,40.0,30.20,West,267,0.0,-999.0,99,-99.99,,,0.00,weatherlink.com 1.10,2013-10-06 06:39:00,
2013-10-05 23:54:00,41.3,39.0,30.21,West,267,0.0,-999.0,90,-99.99,,,0.00,weatherlink.com 1.10,2013-10-06 06:54:00,